Terminal Aerodrome Forecast
Issued by NWS

Home | Current Version | Previous Version | Text Only | Print | Product List | Glossary On
Versions: 1 2 3 4 5 6 7 8 9 10 11 12
000
FTUS45 KSLC 010540
TAFENV
TAF
KENV 010540Z 0106/0206 VRB05KT P6SM SCT080 BKN200
     FM011500 14010KT P6SM SCT060 SCT080 BKN120
     FM012100 24012G22KT P6SM VCSH SCT040 BKN080
     FM020100 28012KT P6SM VCSH SCT040 BKN060
      AMD LTD TO CLD VIS AND WIND=

USA.gov is the U.S. government's official web portal to all federal, state and local government web resources and services.